Time,TemperatureF,DewpointF,PressureIn,WindDirection,WindDirectionDegrees,WindSpeedMPH,WindSpeedGustMPH,Humidity,HourlyPrecipIn,Conditions,Clouds,dailyrainin,SoftwareType,DateUTC
2013-07-12 00:01:00,63.1,55.4,30.08,West,270,0.0,0.0,76,0.00,,,0.00,WUHU21623XXSP,2013-07-12 04:01:00,
2013-07-12 00:06:00,62.8,55.0,30.08,West,270,0.0,0.0,76,0.00,,,0.00,WUHU21623XXSP,2013-07-12 04:06:00,
2013-07-12 00:11:00,62.8,55.0,30.08,West,270,0.0,0.0,76,0.00,,,0.00,WUHU21623XXSP,2013-07-12 04:11:00,
2013-07-12 00:16:00,62.4,54.7,30.08,West,270,0.0,0.0,76,0.00,,,0.00,WUHU21623XXSP,2013-07-12 04:16:00,
2013-07-12 00:21:00,62.4,55.1,30.08,West,270,0.0,0.0,77,0.00,,,0.00,WUHU21623XXSP,2013-07-12 04:21:00,
2013-07-12 00:26:00,62.4,55.1,30.08,West,270,0.0,0.0,77,0.00,,,0.00,WUHU21623XXSP,2013-07-12 04:26:00,
2013-07-12 00:31:00,62.2,54.9,30.09,West,270,0.0,0.0,77,0.00,,,0.00,WUHU21623XXSP,2013-07-12 04:31:00,
2013-07-12 00:36:00,62.2,54.9,30.09,West,270,0.0,0.0,77,0.00,,,0.00,WUHU21623XXSP,2013-07-12 04:36:00,
2013-07-12 00:41:00,62.1,54.7,30.09,West,270,0.0,0.0,77,0.00,,,0.00,WUHU21623XXSP,2013-07-12 04:41:00,
2013-07-12 00:46:00,61.9,54.6,30.09,West,270,0.0,0.0,77,0.00,,,0.00,WUHU21623XXSP,2013-07-12 04:46:00,
2013-07-12 00:51:00,61.7,54.4,30.09,West,270,0.0,0.0,77,0.00,,,0.00,WUHU21623XXSP,2013-07-12 04:51:00,
2013-07-12 00:56:00,61.7,54.8,30.09,West,270,0.0,0.0,78,0.00,,,0.00,WUHU21623XXSP,2013-07-12 04:56:00,
2013-07-12 01:01:00,61.5,54.6,30.09,West,270,0.0,0.0,78,0.00,,,0.00,WUHU21623XXSP,2013-07-12 05:01:00,
2013-07-12 01:10:00,61.5,54.6,30.09,West,270,0.0,0.0,78,0.00,,,0.00,WUHU21623XXSP,2013-07-12 05:10:00,
2013-07-12 01:15:00,61.2,54.3,30.09,West,270,0.0,0.0,78,0.00,,,0.00,WUHU21623XXSP,2013-07-12 05:15:00,
2013-07-12 01:20:00,61.0,54.1,30.09,West,270,0.0,0.0,78,0.00,,,0.00,WUHU21623XXSP,2013-07-12 05:20:00,
2013-07-12 01:25:00,61.0,54.1,30.09,West,270,0.0,0.0,78,0.00,,,0.00,WUHU21623XXSP,2013-07-12 05:25:00,
2013-07-12 01:30:00,60.6,53.8,30.09,West,270,0.0,0.0,78,0.00,,,0.00,WUHU21623XXSP,2013-07-12 05:30:00,
2013-07-12 01:35:00,60.6,53.8,30.09,West,270,0.0,0.0,78,0.00,,,0.00,WUHU21623XXSP,2013-07-12 05:35:00,
2013-07-12 01:40:00,60.6,53.8,30.10,West,270,0.0,0.0,78,0.00,,,0.00,WUHU21623XXSP,2013-07-12 05:40:00,
2013-07-12 01:45:00,60.6,54.1,30.09,West,270,0.0,0.0,79,0.00,,,0.00,WUHU21623XXSP,2013-07-12 05:45:00,
2013-07-12 01:50:00,60.6,54.1,30.09,West,270,0.0,0.0,79,0.00,,,0.00,WUHU21623XXSP,2013-07-12 05:50:00,
2013-07-12 01:55:00,60.6,54.1,30.10,West,270,0.0,0.0,79,0.00,,,0.00,WUHU21623XXSP,2013-07-12 05:55:00,
2013-07-12 02:00:00,60.4,54.0,30.09,West,270,0.0,0.0,79,0.00,,,0.00,WUHU21623XXSP,2013-07-12 06:00:00,
2013-07-12 02:05:00,60.4,54.0,30.09,West,270,0.0,0.0,79,0.00,,,0.00,WUHU21623XXSP,2013-07-12 06:05:00,
2013-07-12 02:10:00,60.4,54.0,30.09,West,270,0.0,0.0,79,0.00,,,0.00,WUHU21623XXSP,2013-07-12 06:10:00,
2013-07-12 02:15:00,60.3,53.8,30.09,West,270,0.0,0.0,79,0.00,,,0.00,WUHU21623XXSP,2013-07-12 06:15:00,
2013-07-12 02:20:00,60.1,53.6,30.10,West,270,0.0,0.0,79,0.00,,,0.00,WUHU21623XXSP,2013-07-12 06:20:00,
2013-07-12 02:25:00,60.1,53.6,30.09,West,270,0.0,0.0,79,0.00,,,0.00,WUHU21623XXSP,2013-07-12 06:25:00,
2013-07-12 02:30:00,60.1,53.6,30.10,West,270,0.0,0.0,79,0.00,,,0.00,WUHU21623XXSP,2013-07-12 06:30:00,
2013-07-12 02:35:00,59.9,53.8,30.09,West,270,0.0,0.0,80,0.00,,,0.00,WUHU21623XXSP,2013-07-12 06:35:00,
2013-07-12 02:40:00,59.9,53.8,30.10,West,270,0.0,0.0,80,0.00,,,0.00,WUHU21623XXSP,2013-07-12 06:40:00,
2013-07-12 02:45:00,59.9,53.8,30.10,West,270,0.0,0.0,80,0.00,,,0.00,WUHU21623XXSP,2013-07-12 06:45:00,
2013-07-12 02:50:00,59.7,53.6,30.10,West,270,0.0,0.0,80,0.00,,,0.00,WUHU21623XXSP,2013-07-12 06:50:00,
2013-07-12 02:55:00,59.7,53.6,30.10,West,270,0.0,0.0,80,0.00,,,0.00,WUHU21623XXSP,2013-07-12 06:55:00,
2013-07-12 03:00:00,59.5,53.4,30.10,North,0,0.0,0.0,80,0.00,,,0.00,WUHU21623XXSP,2013-07-12 07:00:00,
2013-07-12 03:05:00,59.5,53.4,30.10,North,0,0.0,0.0,80,0.00,,,0.00,WUHU21623XXSP,2013-07-12 07:05:00,
2013-07-12 03:10:00,59.2,53.1,30.10,West,270,0.0,0.0,80,0.00,,,0.00,WUHU21623XXSP,2013-07-12 07:10:00,
2013-07-12 03:15:00,59.2,53.1,30.10,West,270,0.0,0.0,80,0.00,,,0.00,WUHU21623XXSP,2013-07-12 07:15:00,
2013-07-12 04:04:00,58.8,53.0,30.10,West,270,0.0,0.0,81,0.00,,,0.00,WUHU21623XXSP,2013-07-12 08:04:00,
2013-07-12 05:04:00,58.3,52.5,30.12,West,270,0.0,0.0,81,0.00,,,0.00,WUHU21623XXSP,2013-07-12 09:04:00,
2013-07-12 06:04:00,57.6,52.5,30.13,West,270,0.0,0.0,83,0.00,,,0.00,WUHU21623XXSP,2013-07-12 10:04:00,
2013-07-12 07:04:00,57.4,52.3,30.14,West,270,0.0,0.0,83,0.00,,,0.00,WUHU21623XXSP,2013-07-12 11:04:00,
2013-07-12 08:04:00,59.4,54.6,30.14,West,270,0.0,0.0,84,0.00,,,0.00,WUHU21623XXSP,2013-07-12 12:04:00,
2013-07-12 09:04:00,62.4,58.2,30.15,West,270,0.0,0.0,86,0.00,,,0.00,WUHU21623XXSP,2013-07-12 13:04:00,
2013-07-12 10:04:00,67.3,62.0,30.16,SW,225,0.0,0.0,83,0.00,,,0.00,WUHU21623XXSP,2013-07-12 14:04:00,
2013-07-12 11:04:00,70.3,62.9,30.15,SSE,158,0.0,0.0,77,0.00,,,0.00,WUHU21623XXSP,2013-07-12 15:04:00,
2013-07-12 12:04:00,73.2,62.6,30.15,ENE,68,0.0,0.0,69,0.00,,,0.00,WUHU21623XXSP,2013-07-12 16:04:00,
2013-07-12 13:04:00,74.8,62.9,30.14,ESE,113,0.0,0.0,66,0.00,,,0.00,WUHU21623XXSP,2013-07-12 17:04:00,
2013-07-12 14:04:00,75.9,63.1,30.14,SSE,158,0.0,0.0,64,0.00,,,0.00,WUHU21623XXSP,2013-07-12 18:04:00,
2013-07-12 15:04:00,76.1,62.4,30.14,East,90,0.0,0.0,62,0.00,,,0.00,WUHU21623XXSP,2013-07-12 19:04:00,
2013-07-12 16:04:00,76.6,62.4,30.13,WSW,248,0.0,0.0,61,0.00,,,0.00,WUHU21623XXSP,2013-07-12 20:04:00,
2013-07-12 17:04:00,76.3,61.1,30.12,SE,135,0.0,0.0,59,0.00,,,0.00,WUHU21623XXSP,2013-07-12 21:04:00,
2013-07-12 18:04:00,75.6,60.5,30.13,SE,135,0.0,0.0,59,0.00,,,0.00,WUHU21623XXSP,2013-07-12 22:04:00,
2013-07-12 19:04:00,74.8,60.7,30.11,SE,135,0.0,0.0,61,0.00,,,0.00,WUHU21623XXSP,2013-07-12 23:04:00,
2013-07-12 20:04:00,74.1,60.5,30.11,ESE,113,0.0,0.0,62,0.00,,,0.00,WUHU21623XXSP,2013-07-13 00:04:00,
2013-07-12 21:04:00,72.3,60.5,30.12,ESE,113,0.0,0.0,66,0.00,,,0.00,WUHU21623XXSP,2013-07-13 01:04:00,
2013-07-12 22:04:00,69.4,59.4,30.12,ESE,113,0.0,0.0,70,0.00,,,0.00,WUHU21623XXSP,2013-07-13 02:04:00,
2013-07-12 23:04:00,67.8,59.0,30.13,ESE,113,0.0,0.0,73,0.00,,,0.00,WUHU21623XXSP,2013-07-13 03:04:00,